West Palm Beach, FL (33401)

8:36 AM EDT on September 04, 2015 (GMT -0400)
Palm Beach, FL | | Change Station
CLOSE
Current Station
Personal Weather Station
Location: Palm Beach, FL
Elevation: 8 ft
Nearby Weather Stations

Elev 8 ft 26.71 °N, 80.04 °W | Updated 8 seconds ago

Scattered Clouds
Scattered Clouds
82.2 °F
Feels Like 90 °F
N
2.9
Wind Variable Wind from NW
Gusts 4.0 mph

Today
High -- | Low -- °F
--% Chance of Precip.
Yesterday
High -- | Low -- °F
Precip. -- in
7:01 AM 7:37 PM
Waning Gibbous, 60% visible
Pressure 29.97 in
Visibility 10.0 miles
Clouds Few 2600 ft
Scattered Clouds 25000 ft
Heat Index 90 °F
Dew Point 76 °F
Humidity 81%
Rainfall 0.00 in
Snow Depth Not available.
UV 1 out of 12
Pollen 3.60 out of 12
Air Quality Not available.
Flu Activity Not available.
METAR KPBI 041153Z 24005KT 10SM FEW026 SCT250 26/23 A2997 RMK AO2 SLP148 TCU DSNT SE T02560233 10256 20239 51012
Pressure 29.97 in
Visibility 10.0 miles
Clouds Few 2600 ft
Scattered Clouds 25000 ft
Heat Index 90 °F
Dew Point 76 °F
Humidity 81%
Rainfall 0.00 in
Snow Depth Not available.
UV 1 out of 12
Pollen 3.60 out of 12
Air Quality Not available.
Flu Activity Not available.
METAR KPBI 041153Z 24005KT 10SM FEW026 SCT250 26/23 A2997 RMK AO2 SLP148 TCU DSNT SE T02560233 10256 20239 51012

10-Day Weather Forecast

×

Almanac

Astronomy

Sep. 04, 2015 Rise Set
Actual Time
Civil Twilight
Nautical Twilight
Astronomical Twilight
Moon
Length of Visible Light
Length of Day
Tomorrow will be .
, % of the Moon is Illuminated

Today's Extremes

State Highs State Lows

Community

WunderPhotos

Upload Photos

1,852,170 photos uploaded!

WunderBlogs® & News

Nearby

Air Quality

  Air Quality AQ Index Pollutant
Not available.

Snow Depth

Station Depth Elevation

Earthquake Activity

City Distance Mag. Time & Date
Minimum magnitude displayed is 2.5.

Coastal Water Temperatures

Place Temperature

Stations

Nearby Weather Stations

Station Location Temp. Windchill Dew Point Humidity Wind Precip. Elev Updated Type